createdAt,value
2023-04-25T00:02:00.852Z,15.83
2023-04-25T00:04:31.016Z,15.80
2023-04-25T00:06:59.423Z,15.77
2023-04-25T00:09:27.371Z,16.67
2023-04-25T00:11:55.413Z,17.20
2023-04-25T00:14:23.923Z,18.47
2023-04-25T00:16:53.016Z,17.20
2023-04-25T00:19:20.994Z,16.30
2023-04-25T00:21:50.373Z,16.40
2023-04-25T00:24:18.334Z,16.60
2023-04-25T00:26:46.288Z,16.43
2023-04-25T00:29:14.275Z,15.30
2023-04-25T00:31:43.106Z,14.80
2023-04-25T00:34:11.307Z,15.67
2023-04-25T00:36:39.890Z,15.60
2023-04-25T00:39:09.359Z,16.17
2023-04-25T00:41:37.856Z,16.33
2023-04-25T00:44:06.380Z,16.00
2023-04-25T00:46:35.369Z,15.23
2023-04-25T00:49:03.385Z,15.20
2023-04-25T00:51:34.810Z,15.50
2023-04-25T00:54:03.041Z,15.63
2023-04-25T00:56:33.303Z,15.30
2023-04-25T00:59:01.811Z,15.27
2023-04-25T01:01:29.901Z,15.17
2023-04-25T01:04:00.357Z,14.80
2023-04-25T01:06:28.534Z,15.57
2023-04-25T01:08:56.623Z,15.00
2023-04-25T01:11:24.744Z,14.70
2023-04-25T01:13:54.106Z,14.50
2023-04-25T01:16:24.992Z,14.20
2023-04-25T01:18:53.785Z,14.20
2023-04-25T01:21:23.205Z,14.43
2023-04-25T01:23:51.923Z,14.40
2023-04-25T01:26:22.187Z,14.20
2023-04-25T01:28:51.188Z,13.77
2023-04-25T01:31:19.992Z,13.40
2023-04-25T01:33:48.337Z,12.40
2023-04-25T01:36:17.397Z,11.83
2023-04-25T01:38:48.592Z,12.10
2023-04-25T01:41:18.062Z,11.63
2023-04-25T01:43:46.509Z,11.40
2023-04-25T01:46:14.716Z,10.10
2023-04-25T01:48:42.790Z,10.00
2023-04-25T01:51:12.537Z,10.10
2023-04-25T01:53:41.240Z,10.43
2023-04-25T01:56:10.953Z,11.00
2023-04-25T01:58:38.933Z,10.90
2023-04-25T02:01:07.083Z,11.70
2023-04-25T02:03:36.848Z,12.27
2023-04-25T02:06:05.330Z,13.30
2023-04-25T02:08:33.541Z,13.60
2023-04-25T02:11:01.482Z,14.70
2023-04-25T02:13:30.831Z,15.37
2023-04-25T02:15:59.407Z,15.27
2023-04-25T02:18:28.344Z,15.17
2023-04-25T02:20:56.444Z,15.17
2023-04-25T02:23:24.432Z,14.40
2023-04-25T02:25:52.777Z,14.50
2023-04-25T02:28:20.711Z,14.20
2023-04-25T02:30:49.997Z,13.93
2023-04-25T02:33:18.266Z,14.00
2023-04-25T02:35:46.404Z,33.10
2023-04-25T02:38:14.334Z,34.67
2023-04-25T02:40:42.719Z,34.70
2023-04-25T02:43:10.615Z,34.43
2023-04-25T02:45:38.764Z,33.97
2023-04-25T02:48:08.522Z,33.47
2023-04-25T02:50:36.421Z,34.37
2023-04-25T02:53:04.326Z,34.67
2023-04-25T02:55:32.249Z,33.37
2023-04-25T02:58:00.270Z,34.37
2023-04-25T03:00:28.205Z,34.27
2023-04-25T03:02:56.649Z,34.03
2023-04-25T03:05:26.034Z,34.63
2023-04-25T03:07:54.009Z,33.97
2023-04-25T03:10:22.104Z,33.20
2023-04-25T03:12:50.062Z,32.70
2023-04-25T03:15:18.809Z,31.63
2023-04-25T03:17:46.906Z,30.33
2023-04-25T03:20:14.909Z,28.30
2023-04-25T03:22:44.335Z,28.63
2023-04-25T03:25:12.951Z,29.00
2023-04-25T03:27:40.919Z,28.47
2023-04-25T03:30:09.972Z,11.00
2023-04-25T03:32:37.959Z,10.00
2023-04-25T03:35:06.771Z,10.00
2023-04-25T03:37:34.844Z,9.50
2023-04-25T03:40:05.091Z,8.80
2023-04-25T03:42:33.098Z,8.13
2023-04-25T03:45:01.132Z,7.20
2023-04-25T03:47:29.112Z,6.00
2023-04-25T03:49:57.051Z,4.90
2023-04-25T03:52:25.011Z,4.43
2023-04-25T03:54:55.018Z,3.80
2023-04-25T03:57:24.420Z,3.30
2023-04-25T03:59:52.398Z,3.10
2023-04-25T04:02:20.717Z,3.00
2023-04-25T04:04:49.003Z,2.67
2023-04-25T04:07:17.183Z,2.87
2023-04-25T04:09:45.130Z,2.37
2023-04-25T04:12:13.050Z,2.40
2023-04-25T04:14:42.548Z,1.80
2023-04-25T04:17:10.574Z,6.37
2023-04-25T04:19:38.556Z,6.10
2023-04-25T04:22:06.533Z,6.40
2023-04-25T04:24:34.722Z,6.10
2023-04-25T04:27:03.065Z,6.53
2023-04-25T04:29:31.853Z,5.80
2023-04-25T04:32:02.097Z,5.47
2023-04-25T04:34:30.063Z,5.67
2023-04-25T04:36:58.047Z,5.50
2023-04-25T04:39:27.196Z,5.70
2023-04-25T04:41:55.142Z,5.63
2023-04-25T04:44:23.832Z,5.17
2023-04-25T04:46:52.133Z,5.20
2023-04-25T04:49:21.667Z,5.43
2023-04-25T04:51:50.711Z,5.63
2023-04-25T04:54:18.763Z,6.70
2023-04-25T04:56:46.758Z,1.80
2023-04-25T04:59:14.957Z,2.00
2023-04-25T05:01:43.121Z,2.20
2023-04-25T05:04:11.219Z,2.80
2023-04-25T05:06:41.640Z,2.80
2023-04-25T05:09:09.562Z,3.80
2023-04-25T05:11:38.121Z,4.10
2023-04-25T05:14:06.073Z,3.90
2023-04-25T05:16:34.206Z,3.97
2023-04-25T05:19:02.153Z,4.50
2023-04-25T05:21:30.110Z,5.10
2023-04-25T05:23:59.386Z,5.50
2023-04-25T05:26:27.359Z,6.77
2023-04-25T05:28:55.738Z,7.10
2023-04-25T05:31:24.196Z,8.33
2023-04-25T05:33:52.386Z,8.97
2023-04-25T05:36:20.904Z,9.50
2023-04-25T05:38:48.912Z,11.00
2023-04-25T05:41:18.926Z,9.97
2023-04-25T05:43:50.030Z,10.27
2023-04-25T05:46:18.546Z,11.10
2023-04-25T05:48:48.884Z,11.00
2023-04-25T05:51:17.358Z,11.80
2023-04-25T05:53:45.317Z,12.10
2023-04-25T05:56:13.528Z,12.30
2023-04-25T05:58:42.885Z,13.00
2023-04-25T06:01:10.988Z,13.00
2023-04-25T06:03:39.567Z,14.00
2023-04-25T06:06:08.308Z,14.47
2023-04-25T06:08:36.511Z,14.43
2023-04-25T06:11:04.480Z,15.07
2023-04-25T06:13:32.449Z,16.50
2023-04-25T06:16:01.754Z,16.20
2023-04-25T06:18:29.913Z,34.00
2023-04-25T06:20:57.940Z,33.90
2023-04-25T06:23:26.098Z,34.23
2023-04-25T06:25:54.144Z,33.20
2023-04-25T06:28:24.783Z,33.67
2023-04-25T06:30:53.173Z,32.83
2023-04-25T06:33:23.169Z,33.73
2023-04-25T06:35:51.218Z,34.00
2023-04-25T06:38:19.158Z,33.77
2023-04-25T06:40:47.122Z,34.37
2023-04-25T06:43:15.096Z,35.50
2023-04-25T06:45:43.737Z,33.73
2023-04-25T06:48:12.399Z,35.10
2023-04-25T06:50:41.706Z,20.67
2023-04-25T06:53:09.944Z,16.50
2023-04-25T06:55:37.885Z,19.73
2023-04-25T06:58:05.872Z,17.90
2023-04-25T07:00:34.654Z,17.93
2023-04-25T07:03:03.401Z,17.93
2023-04-25T07:05:31.501Z,17.47
2023-04-25T07:08:01.374Z,17.60
2023-04-25T07:10:29.689Z,18.37
2023-04-25T07:12:57.859Z,18.00
2023-04-25T07:15:25.879Z,18.37
2023-04-25T07:17:53.799Z,19.80
2023-04-25T07:20:21.936Z,20.00
2023-04-25T07:22:51.092Z,23.93
2023-04-25T07:25:20.663Z,31.67
2023-04-25T07:27:48.594Z,30.77
2023-04-25T07:30:17.281Z,29.67
2023-04-25T07:32:46.462Z,30.90
2023-04-25T07:35:14.455Z,35.03
2023-04-25T07:37:42.511Z,29.93
2023-04-25T07:40:11.568Z,23.77
2023-04-25T07:42:40.895Z,25.17
2023-04-25T07:45:10.712Z,26.83
2023-04-25T07:47:39.501Z,26.60
2023-04-25T07:50:08.671Z,24.40
2023-04-25T07:52:37.013Z,24.10
2023-04-25T07:55:05.464Z,19.87
2023-04-25T07:57:33.394Z,21.60
2023-04-25T08:00:02.735Z,18.30
2023-04-25T08:02:30.815Z,18.20
2023-04-25T08:04:58.989Z,17.30
2023-04-25T08:07:27.668Z,17.60
2023-04-25T08:09:56.926Z,17.50
2023-04-25T08:12:24.874Z,17.67
2023-04-25T08:14:52.951Z,17.63
2023-04-25T08:17:22.303Z,17.83
2023-04-25T08:19:52.596Z,17.33
2023-04-25T08:22:20.733Z,22.57
2023-04-25T08:24:48.718Z,17.93
2023-04-25T08:27:16.753Z,18.20
2023-04-25T08:29:44.757Z,19.00
2023-04-25T08:32:15.904Z,19.33
2023-04-25T08:34:45.228Z,18.27
2023-04-25T08:37:13.224Z,18.30
2023-04-25T08:39:41.331Z,19.63
2023-04-25T08:42:09.707Z,17.80
2023-04-25T08:44:37.676Z,17.92
2023-04-25T08:47:06.868Z,18.17
2023-04-25T08:49:35.954Z,18.60
2023-04-25T08:52:07.457Z,18.10
2023-04-25T08:54:38.389Z,17.60
2023-04-25T08:57:08.643Z,18.08
2023-04-25T08:59:39.226Z,18.23
2023-04-25T09:02:07.485Z,34.60
2023-04-25T09:04:35.447Z,36.63
2023-04-25T09:07:04.750Z,35.03
2023-04-25T09:09:32.783Z,36.30
2023-04-25T09:12:02.618Z,35.95
2023-04-25T09:14:30.644Z,36.67
2023-04-25T09:17:05.905Z,34.08
2023-04-25T09:19:40.857Z,36.35
2023-04-25T09:22:10.864Z,35.72
2023-04-25T09:24:40.450Z,36.47
2023-04-25T09:27:09.508Z,36.45
2023-04-25T09:29:39.031Z,36.38
2023-04-25T09:32:14.972Z,36.53
2023-04-25T09:34:44.822Z,44.35
2023-04-25T09:37:14.513Z,36.67
2023-04-25T09:39:42.505Z,35.20
2023-04-25T09:42:11.912Z,38.92
2023-04-25T09:44:45.173Z,37.53
2023-04-25T09:47:14.632Z,37.10
2023-04-25T09:49:44.161Z,38.20
2023-04-25T09:52:16.773Z,38.65
2023-04-25T09:54:44.976Z,39.10
2023-04-25T09:57:14.489Z,38.70
2023-04-25T09:59:46.923Z,42.63
2023-04-25T10:02:16.835Z,20.42
2023-04-25T10:04:49.461Z,21.23
2023-04-25T10:07:19.894Z,24.50
2023-04-25T10:09:50.923Z,19.10
2023-04-25T10:12:19.113Z,18.75
2023-04-25T10:14:47.865Z,18.70
2023-04-25T10:17:16.532Z,19.50
2023-04-25T10:19:44.968Z,18.63
2023-04-25T10:22:19.491Z,20.40
2023-04-25T10:24:49.299Z,21.17
2023-04-25T10:27:17.358Z,20.58
2023-04-25T10:29:45.576Z,19.48
2023-04-25T10:32:13.720Z,18.20
2023-04-25T10:34:43.824Z,18.35
2023-04-25T10:37:12.475Z,16.85
2023-04-25T10:39:41.758Z,17.38
2023-04-25T10:42:11.342Z,17.52
2023-04-25T10:44:40.723Z,18.70
2023-04-25T10:47:10.614Z,23.67
2023-04-25T10:49:40.262Z,18.38
2023-04-25T10:52:19.751Z,19.35
2023-04-25T10:54:53.526Z,19.80
2023-04-25T10:57:39.220Z,17.70
2023-04-25T11:00:14.144Z,17.20
2023-04-25T11:02:48.110Z,17.48
2023-04-25T11:08:37.544Z,18.60
2023-04-25T11:11:05.698Z,17.35
2023-04-25T11:13:35.057Z,17.30
2023-04-25T11:16:12.254Z,18.30
2023-04-25T11:18:44.123Z,15.60
2023-04-25T11:21:12.712Z,24.55
2023-04-25T11:23:40.825Z,20.83
2023-04-25T11:26:08.872Z,23.90
2023-04-25T11:28:40.374Z,17.80
2023-04-25T11:31:08.354Z,17.52
2023-04-25T11:33:36.302Z,22.08
2023-04-25T11:36:04.537Z,18.27
2023-04-25T11:38:32.525Z,17.10
2023-04-25T11:41:01.023Z,15.20
2023-04-25T11:43:29.456Z,16.70
2023-04-25T11:45:58.809Z,17.30
2023-04-25T11:48:26.884Z,18.02
2023-04-25T11:50:56.193Z,19.02
2023-04-25T11:53:25.839Z,19.27
2023-04-25T11:55:54.053Z,24.35
2023-04-25T11:58:22.451Z,25.00
2023-04-25T12:00:50.893Z,18.50
2023-04-25T12:03:22.808Z,17.65
2023-04-25T12:05:52.363Z,18.02
2023-04-25T12:08:20.733Z,24.85
2023-04-25T12:10:49.553Z,17.02
2023-04-25T12:13:22.610Z,24.70
2023-04-25T12:15:50.956Z,19.05
2023-04-25T12:18:23.402Z,17.95
2023-04-25T12:20:51.498Z,14.95
2023-04-25T12:23:19.455Z,30.30
2023-04-25T12:25:48.250Z,18.63
2023-04-25T12:28:20.658Z,16.85
2023-04-25T12:30:56.299Z,16.58
2023-04-25T12:33:27.121Z,16.92
2023-04-25T12:35:55.539Z,17.80
2023-04-25T12:38:24.958Z,18.50
2023-04-25T12:40:52.985Z,15.50
2023-04-25T12:43:21.096Z,17.52
2023-04-25T12:45:51.136Z,17.40
2023-04-25T12:48:19.223Z,17.30
2023-04-25T12:50:50.170Z,17.35
2023-04-25T12:53:18.373Z,24.58
2023-04-25T12:55:48.017Z,22.20
2023-04-25T12:58:16.230Z,18.70
2023-04-25T13:00:44.392Z,18.90
2023-04-25T13:03:13.455Z,23.80
2023-04-25T13:05:42.143Z,26.92
2023-04-25T13:08:11.612Z,25.00
2023-04-25T13:10:40.462Z,19.15
2023-04-25T13:13:08.559Z,19.30
2023-04-25T13:15:36.661Z,19.58
2023-04-25T13:18:05.539Z,19.30
2023-04-25T13:20:33.649Z,18.35
2023-04-25T13:23:02.931Z,17.65
2023-04-25T13:25:32.509Z,17.92
2023-04-25T13:28:00.468Z,32.33
2023-04-25T13:30:28.558Z,18.55
2023-04-25T13:32:58.063Z,19.10
2023-04-25T13:35:26.860Z,20.25
2023-04-25T13:37:54.826Z,19.17
2023-04-25T13:40:25.139Z,17.17
2023-04-25T13:42:55.222Z,18.00
2023-04-25T13:45:23.282Z,18.27
2023-04-25T13:47:51.336Z,17.90
2023-04-25T13:50:19.761Z,22.55
2023-04-25T13:52:47.753Z,18.58
2023-04-25T13:55:15.758Z,18.25
2023-04-25T13:57:44.814Z,18.70
2023-04-25T14:00:15.672Z,21.25
2023-04-25T14:02:43.778Z,18.70
2023-04-25T14:05:11.853Z,19.42
2023-04-25T14:07:39.826Z,16.17
2023-04-25T14:10:08.743Z,23.40
2023-04-25T14:12:37.086Z,29.25
2023-04-25T14:15:06.064Z,32.20
2023-04-25T14:17:35.432Z,19.80
2023-04-25T14:20:06.503Z,19.08
2023-04-25T14:22:34.466Z,19.45
2023-04-25T14:25:02.407Z,18.80
2023-04-25T14:27:30.362Z,19.00
2023-04-25T14:29:58.284Z,18.80
2023-04-25T14:32:38.608Z,19.80
2023-04-25T14:35:08.205Z,18.83
2023-04-25T14:37:36.149Z,18.60
2023-04-25T14:40:04.308Z,18.13
2023-04-25T14:42:33.144Z,23.05
2023-04-25T14:45:01.110Z,30.48
2023-04-25T14:47:29.172Z,22.42
2023-04-25T14:49:58.508Z,18.15
2023-04-25T14:52:26.837Z,17.65
2023-04-25T14:54:54.826Z,18.10
2023-04-25T14:57:22.940Z,17.48
2023-04-25T14:59:51.106Z,18.83
2023-04-25T15:02:19.243Z,18.73
2023-04-25T15:04:47.375Z,23.60
2023-04-25T15:07:18.478Z,19.80
2023-04-25T15:09:46.789Z,18.05
2023-04-25T15:12:14.734Z,19.95
2023-04-25T15:14:42.879Z,17.10
2023-04-25T15:17:10.923Z,14.50
2023-04-25T15:19:39.045Z,19.50
2023-04-25T15:22:07.840Z,18.55
2023-04-25T15:24:37.365Z,14.07
2023-04-25T15:27:05.519Z,18.77
2023-04-25T15:29:33.515Z,16.08
2023-04-25T15:32:01.552Z,19.00
2023-04-25T15:34:29.623Z,18.00
2023-04-25T15:36:58.598Z,18.17
2023-04-25T15:39:26.634Z,16.48
2023-04-25T15:41:56.188Z,17.52
2023-04-25T15:44:24.181Z,17.05
2023-04-25T15:46:53.858Z,18.00
2023-04-25T15:49:23.175Z,16.90
2023-04-25T15:51:51.437Z,18.85
2023-04-25T15:54:19.664Z,30.40
2023-04-25T15:56:47.629Z,17.58
2023-04-25T15:59:16.975Z,17.13
2023-04-25T16:01:45.201Z,17.67
2023-04-25T16:04:13.444Z,16.65
2023-04-25T16:06:42.591Z,14.43
2023-04-25T16:09:12.108Z,16.25
2023-04-25T16:11:40.065Z,16.05
2023-04-25T16:14:08.868Z,16.30
2023-04-25T16:16:38.350Z,16.85
2023-04-25T16:19:06.489Z,16.20
2023-04-25T16:21:34.716Z,16.73
2023-04-25T16:24:02.701Z,16.30
2023-04-25T16:26:30.932Z,16.30
2023-04-25T16:28:58.894Z,16.45
2023-04-25T16:31:27.002Z,16.55
2023-04-25T16:33:56.773Z,16.70
2023-04-25T16:36:25.359Z,16.60
2023-04-25T16:38:53.778Z,16.88
2023-04-25T16:41:22.248Z,16.30
2023-04-25T16:43:50.482Z,16.40
2023-04-25T16:46:19.736Z,17.00
2023-04-25T16:48:48.757Z,16.02
2023-04-25T16:51:18.378Z,16.42
2023-04-25T16:53:46.717Z,18.50
2023-04-25T16:56:14.672Z,16.13
2023-04-25T16:58:42.624Z,16.23
2023-04-25T17:01:10.706Z,17.33
2023-04-25T17:03:38.991Z,19.40
2023-04-25T17:06:07.955Z,16.83
2023-04-25T17:08:37.440Z,16.33
2023-04-25T17:11:06.037Z,15.80
2023-04-25T17:13:34.166Z,15.73
2023-04-25T17:16:02.400Z,16.65
2023-04-25T17:18:30.461Z,17.40
2023-04-25T17:20:58.454Z,17.20
2023-04-25T17:23:26.399Z,16.35
2023-04-25T17:25:55.752Z,16.70
2023-04-25T17:28:23.847Z,16.83
2023-04-25T17:30:52.678Z,16.80
2023-04-25T17:33:20.657Z,16.85
2023-04-25T17:35:48.598Z,17.05
2023-04-25T17:38:16.567Z,17.88
2023-04-25T17:40:44.490Z,16.75
2023-04-25T17:43:13.842Z,17.83
2023-04-25T17:45:41.983Z,17.20
2023-04-25T17:48:09.945Z,16.80
2023-04-25T17:50:37.904Z,17.15
2023-04-25T17:53:06.062Z,16.80
2023-04-25T17:55:34.002Z,17.40
2023-04-25T17:58:02.031Z,16.58
2023-04-25T18:00:33.526Z,16.48
2023-04-25T18:03:01.584Z,16.23
2023-04-25T18:05:31.144Z,16.90
2023-04-25T18:07:59.387Z,20.42
2023-04-25T18:10:27.420Z,17.20
2023-04-25T18:12:55.549Z,17.08
2023-04-25T18:15:23.680Z,17.40
2023-04-25T18:17:53.351Z,18.02
2023-04-25T18:20:22.283Z,17.60
2023-04-25T18:22:50.785Z,17.90
2023-04-25T18:25:18.761Z,17.48
2023-04-25T18:27:46.971Z,17.90
2023-04-25T18:30:15.496Z,18.33
2023-04-25T18:32:43.491Z,17.67
2023-04-25T18:35:13.062Z,17.80
2023-04-25T18:37:42.308Z,17.52
2023-04-25T18:40:14.095Z,18.00
2023-04-25T18:42:42.793Z,20.00
2023-04-25T18:45:11.945Z,18.70
2023-04-25T18:47:39.977Z,18.27
2023-04-25T18:50:09.216Z,17.97
2023-04-25T18:52:38.650Z,19.20
2023-04-25T18:55:07.580Z,18.20
2023-04-25T18:57:36.114Z,17.70
2023-04-25T19:00:07.010Z,17.90
2023-04-25T19:02:37.149Z,18.17
2023-04-25T19:05:05.734Z,18.40
2023-04-25T19:07:33.710Z,18.50
2023-04-25T19:10:04.240Z,18.20
2023-04-25T19:12:33.492Z,18.33
2023-04-25T19:15:01.813Z,18.33
2023-04-25T19:17:30.612Z,18.60
2023-04-25T19:19:58.761Z,18.30
2023-04-25T19:22:27.444Z,18.40
2023-04-25T19:25:06.725Z,18.77
2023-04-25T19:27:39.705Z,18.70
2023-04-25T19:30:08.975Z,18.15
2023-04-25T19:32:37.388Z,17.97
2023-04-25T19:35:05.924Z,18.13
2023-04-25T19:37:33.869Z,17.77
2023-04-25T19:40:01.868Z,17.77
2023-04-25T19:42:29.955Z,17.80
2023-04-25T19:44:59.402Z,19.23
2023-04-25T19:47:28.308Z,17.77
2023-04-25T19:49:56.361Z,19.77
2023-04-25T19:52:24.400Z,18.87
2023-04-25T19:54:52.405Z,19.60
2023-04-25T19:57:20.431Z,17.90
2023-04-25T19:59:49.707Z,17.70
2023-04-25T20:02:21.337Z,18.93
2023-04-25T20:04:49.623Z,19.40
2023-04-25T20:07:20.194Z,18.03
2023-04-25T20:09:48.524Z,17.83
2023-04-25T20:12:18.087Z,18.97
2023-04-25T20:14:46.084Z,17.77
2023-04-25T20:17:14.928Z,18.40
2023-04-25T20:19:44.215Z,18.03
2023-04-25T20:22:12.195Z,18.47
2023-04-25T20:24:40.952Z,18.13
2023-04-25T20:27:08.924Z,17.87
2023-04-25T20:29:37.018Z,18.20
2023-04-25T20:32:05.299Z,18.60
2023-04-25T20:34:33.545Z,17.90
2023-04-25T20:37:03.024Z,17.67
2023-04-25T20:39:33.202Z,17.50
2023-04-25T20:42:01.548Z,17.60
2023-04-25T20:44:31.608Z,18.53
2023-04-25T20:47:00.284Z,18.60
2023-04-25T20:49:28.278Z,18.20
2023-04-25T20:51:56.334Z,18.00
2023-04-25T20:54:27.142Z,18.20
2023-04-25T20:56:55.894Z,18.07
2023-04-25T20:59:23.908Z,18.00
2023-04-25T21:01:51.985Z,18.90
2023-04-25T21:04:20.332Z,18.40
2023-04-25T21:06:48.629Z,18.73
2023-04-25T21:09:18.281Z,18.37
2023-04-25T21:11:47.743Z,18.30
2023-04-25T21:14:16.510Z,18.40
2023-04-25T21:16:44.535Z,18.87
2023-04-25T21:19:12.695Z,18.13
2023-04-25T21:21:40.673Z,18.80
2023-04-25T21:24:09.994Z,19.10
2023-04-25T21:26:38.054Z,18.33
2023-04-25T21:29:07.506Z,18.73
2023-04-25T21:31:38.701Z,18.60
2023-04-25T21:34:07.871Z,18.87
2023-04-25T21:36:35.977Z,18.50
2023-04-25T21:39:05.555Z,18.50
2023-04-25T21:41:33.547Z,18.70
2023-04-25T21:44:01.561Z,18.70
2023-04-25T21:46:30.976Z,18.70
2023-04-25T21:48:58.998Z,18.23
2023-04-25T21:51:26.993Z,18.47
2023-04-25T21:53:55.059Z,18.53
2023-04-25T21:56:23.114Z,18.60
2023-04-25T21:58:51.246Z,18.80
2023-04-25T22:01:19.396Z,18.93
2023-04-25T22:03:48.910Z,18.67
2023-04-25T22:06:17.069Z,18.70
2023-04-25T22:08:46.945Z,19.40
2023-04-25T22:11:14.918Z,19.20
2023-04-25T22:13:42.874Z,19.33
2023-04-25T22:16:12.296Z,18.70
2023-04-25T22:18:42.139Z,18.53
2023-04-25T22:21:11.528Z,19.03
2023-04-25T22:23:39.529Z,18.67
2023-04-25T22:26:07.682Z,18.80
2023-04-25T22:28:35.632Z,18.50
2023-04-25T22:31:03.712Z,17.77
2023-04-25T22:33:33.476Z,18.17
2023-04-25T22:36:02.067Z,18.57
2023-04-25T22:38:32.023Z,18.30
2023-04-25T22:41:00.134Z,18.63
2023-04-25T22:43:29.429Z,18.60
2023-04-25T22:45:58.879Z,18.50
2023-04-25T22:48:27.021Z,18.40
2023-04-25T22:51:02.981Z,18.13
2023-04-25T22:53:34.308Z,18.67
2023-04-25T22:56:02.230Z,18.27
2023-04-25T22:58:30.181Z,17.90
2023-04-25T23:00:58.937Z,18.07
2023-04-25T23:03:27.119Z,18.03
2023-04-25T23:05:55.252Z,18.17
2023-04-25T23:08:23.307Z,17.83
2023-04-25T23:10:52.746Z,18.60
2023-04-25T23:13:20.931Z,18.17
2023-04-25T23:15:48.902Z,18.10
2023-04-25T23:18:17.223Z,18.60
2023-04-25T23:20:46.007Z,18.13
2023-04-25T23:23:13.970Z,18.83
2023-04-25T23:25:42.014Z,18.27
2023-04-25T23:28:11.471Z,18.17
2023-04-25T23:30:39.543Z,18.40
2023-04-25T23:33:07.556Z,18.10
2023-04-25T23:35:36.991Z,18.20
2023-04-25T23:38:05.084Z,18.30
2023-04-25T23:40:33.371Z,17.87
2023-04-25T23:43:02.322Z,17.77
2023-04-25T23:45:31.675Z,17.93
2023-04-25T23:47:59.883Z,18.70
2023-04-25T23:50:27.879Z,17.90
2023-04-25T23:52:55.800Z,17.70
2023-04-25T23:55:23.770Z,17.83
2023-04-25T23:57:52.185Z,17.90
